Time;durP1;ratioP1;P1;durP2;ratioP2;P2;SDS_P1;SDS_P2;PMS_P1;PMS_P2;Temp;Humidity;BMP_temperature;BMP_pressure;BME280_temperature;BME280_humidity;BME280_pressure;Samples;Min_cycle;Max_cycle;Signal;HPM_P1;HPM_P2
2022/10/22 00:00:16;;;;;;;9.05;2.33;;;;;;;17.32;77.16;101689.31;2102388;28;20059;-74
2022/10/22 00:01:37;;;;;;;12.25;2.75;;;;;;;17.31;77.29;101687.53;2094274;28;20048;-74
2022/10/22 00:03:00;;;;;;;10.65;2.00;;;;;;;17.30;77.17;101685.72;2099241;28;20135;-74
2022/10/22 00:04:23;;;;;;;10.98;2.63;;;;;;;17.31;76.94;101683.94;2093627;28;20089;-74
2022/10/22 00:05:44;;;;;;;9.88;2.08;;;;;;;17.27;76.83;101679.47;2100054;28;20482;-74
2022/10/22 00:07:06;;;;;;;11.07;2.53;;;;;;;17.26;76.72;101675.06;2101298;28;20385;-74
2022/10/22 00:08:28;;;;;;;10.48;2.05;;;;;;;17.23;76.86;101672.34;2101867;28;20052;-74
2022/10/22 00:09:52;;;;;;;12.35;2.55;;;;;;;17.23;76.82;101680.38;2102195;28;20043;-73
2022/10/22 00:11:16;;;;;;;15.02;2.35;;;;;;;17.21;76.89;101677.69;2104709;28;20040;-74
2022/10/22 00:12:39;;;;;;;10.68;2.22;;;;;;;17.20;76.98;101675.03;2092901;28;20066;-74
2022/10/22 00:14:01;;;;;;;8.40;1.88;;;;;;;17.18;77.09;101674.13;2094266;28;20052;-74
2022/10/22 00:15:23;;;;;;;13.52;2.40;;;;;;;17.19;76.97;101689.25;2086055;28;20106;-73
2022/10/22 00:16:45;;;;;;;9.23;1.90;;;;;;;17.20;77.04;101688.38;2100812;28;20090;-74
2022/10/22 00:18:07;;;;;;;10.30;2.47;;;;;;;17.21;76.96;101690.13;2092207;28;20041;-73
2022/10/22 00:19:29;;;;;;;11.38;1.70;;;;;;;17.19;76.88;101698.16;2099284;28;20051;-74
2022/10/22 00:20:50;;;;;;;7.95;1.88;;;;;;;17.18;77.07;101688.38;2093722;28;20081;-73
2022/10/22 00:22:13;;;;;;;7.63;1.73;;;;;;;17.18;77.06;101692.81;2099767;28;20139;-74
2022/10/22 00:23:34;;;;;;;14.55;2.55;;;;;;;17.14;76.88;101687.44;2096568;28;20093;-74
2022/10/22 00:24:58;;;;;;;11.68;1.88;;;;;;;17.10;76.92;101684.78;2093482;28;20451;-73
2022/10/22 00:26:21;;;;;;;12.10;2.40;;;;;;;17.06;76.76;101683.88;2098613;28;20048;-74
2022/10/22 00:27:42;;;;;;;10.02;1.92;;;;;;;17.07;76.62;101674.06;2093571;28;20472;-73
2022/10/22 00:29:05;;;;;;;12.45;2.65;;;;;;;17.03;76.57;101673.19;2090916;28;20049;-73
2022/10/22 00:30:26;;;;;;;9.93;1.90;;;;;;;16.98;76.57;101671.38;2099275;28;20048;-73
2022/10/22 00:31:50;;;;;;;9.30;1.50;;;;;;;16.96;76.34;101665.16;2093545;28;20508;-73
2022/10/22 00:33:11;;;;;;;11.52;2.53;;;;;;;16.93;76.22;101675.81;2099844;28;20480;-73
2022/10/22 00:34:34;;;;;;;11.30;2.00;;;;;;;16.88;76.10;101667.78;2110750;28;20044;-73
2022/10/22 00:35:55;;;;;;;7.63;1.70;;;;;;;16.85;76.01;101672.22;2103073;28;20077;-73
2022/10/22 00:37:18;;;;;;;12.52;2.25;;;;;;;16.82;76.11;101677.53;2096012;28;20412;-73
2022/10/22 00:38:39;;;;;;;11.35;2.10;;;;;;;16.80;76.09;101669.53;2102287;28;20105;-74
2022/10/22 00:40:04;;;;;;;11.40;2.15;;;;;;;16.76;75.68;101673.06;2096559;28;20070;-74
2022/10/22 00:41:27;;;;;;;10.05;1.80;;;;;;;16.76;75.70;101682.81;2094278;28;20155;-74
2022/10/22 00:42:48;;;;;;;12.05;3.08;;;;;;;16.74;75.59;101675.72;2093943;28;20516;-73
2022/10/22 00:44:44;;;;;;;11.13;2.83;;;;;;;16.71;75.65;101674.81;2093683;28;20040;-74
2022/10/22 00:46:06;;;;;;;11.85;2.10;;;;;;;16.65;75.88;101675.69;2104388;28;20048;-74
2022/10/22 00:47:30;;;;;;;13.35;1.75;;;;;;;16.65;75.99;101665.03;2084946;28;20048;-73
2022/10/22 00:48:55;;;;;;;13.32;2.47;;;;;;;16.66;75.98;101677.47;2092140;28;20044;-73
2022/10/22 00:50:20;;;;;;;11.27;2.97;;;;;;;16.64;76.10;101663.22;2099553;28;20052;-73
2022/10/22 00:51:43;;;;;;;10.55;2.63;;;;;;;16.63;76.38;101665.88;2094689;28;20048;-73
2022/10/22 00:53:09;;;;;;;12.93;2.63;;;;;;;16.61;76.69;101665.88;2093589;28;20055;-73
2022/10/22 00:54:31;;;;;;;12.00;2.05;;;;;;;16.59;76.81;101664.06;2094313;28;20048;-73
2022/10/22 00:55:55;;;;;;;10.27;2.60;;;;;;;16.57;77.01;101661.38;2096685;28;20101;-73
2022/10/22 00:57:18;;;;;;;11.48;1.83;;;;;;;16.57;77.10;101666.72;2094365;28;20090;-74
2022/10/22 00:58:45;;;;;;;13.63;2.15;;;;;;;16.57;77.01;101665.81;2102125;28;20093;-73
2022/10/22 01:00:08;;;;;;;10.32;2.17;;;;;;;16.55;76.96;101671.13;2096302;28;20041;-73
2022/10/22 01:01:32;;;;;;;8.98;2.05;;;;;;;16.53;77.00;101674.69;2102290;28;20048;-73
2022/10/22 01:02:54;;;;;;;14.35;2.85;;;;;;;16.52;77.02;101673.78;2101534;28;20082;-73
2022/10/22 01:04:17;;;;;;;14.18;2.33;;;;;;;16.52;77.19;101670.22;2104937;28;20044;-73
2022/10/22 01:05:43;;;;;;;10.88;2.03;;;;;;;16.51;77.60;101668.44;2102126;28;20727;-73
2022/10/22 01:07:07;;;;;;;11.57;2.13;;;;;;;16.49;77.83;101660.44;2092722;28;20063;-73
2022/10/22 01:08:38;;;;;;;8.27;2.00;;;;;;;16.51;77.90;101665.78;2094082;28;20040;-73
2022/10/22 01:10:09;;;;;;;9.45;1.92;;;;;;;16.52;78.00;101672.91;2110499;28;20039;-73
2022/10/22 01:11:41;;;;;;;9.20;2.50;;;;;;;16.51;77.86;101669.34;2096065;28;20143;-73
2022/10/22 01:13:18;;;;;;;8.95;2.22;;;;;;;16.54;77.96;101673.81;2103215;28;20068;-74
2022/10/22 01:14:49;;;;;;;14.45;2.35;;;;;;;16.53;77.98;101677.34;2103037;28;20055;-73
2022/10/22 01:16:19;;;;;;;14.15;2.25;;;;;;;16.52;78.02;101684.47;2103538;28;20330;-73
2022/10/22 01:17:50;;;;;;;11.88;2.15;;;;;;;16.52;78.08;101681.78;2096452;28;20306;-73
2022/10/22 01:19:30;;;;;;;12.63;2.60;;;;;;;16.54;78.06;101689.81;2102045;28;20067;-73
2022/10/22 01:21:08;;;;;;;10.43;1.80;;;;;;;16.55;78.09;101676.47;2096147;28;20511;-73
2022/10/22 01:22:33;;;;;;;11.35;2.10;;;;;;;16.55;78.21;101687.13;2103383;28;20411;-74
2022/10/22 01:24:28;;;;;;;8.55;1.95;;;;;;;16.58;78.11;101675.59;2102336;28;20028;-74
2022/10/22 01:25:58;;;;;;;9.30;1.98;;;;;;;16.57;78.06;101668.47;2104772;28;20664;-74
2022/10/22 01:27:30;;;;;;;9.63;2.20;;;;;;;16.58;77.90;101664.94;2102999;28;20052;-73
2022/10/22 01:29:02;;;;;;;14.15;4.07;;;;;;;16.58;78.01;101656.94;2103058;28;20069;-73
2022/10/22 01:30:26;;;;;;;8.95;1.90;;;;;;;16.57;77.98;101650.72;2104445;28;20044;-73
2022/10/22 01:31:52;;;;;;;11.70;2.08;;;;;;;16.58;77.89;101647.16;2101305;28;20044;-74
2022/10/22 01:33:19;;;;;;;15.95;2.88;;;;;;;16.61;78.05;101648.97;2096415;28;20068;-73
2022/10/22 01:34:45;;;;;;;13.60;2.40;;;;;;;16.64;78.35;101660.56;2092605;28;20087;-73
2022/10/22 01:36:09;;;;;;;11.18;2.42;;;;;;;16.66;78.37;101661.47;2102647;28;20067;-73
2022/10/22 01:37:35;;;;;;;9.27;1.77;;;;;;;16.69;78.40;101661.47;2096490;28;20704;-73
2022/10/22 01:38:59;;;;;;;12.57;1.90;;;;;;;16.70;78.58;101660.59;2099296;28;20109;-73
2022/10/22 01:40:23;;;;;;;9.77;2.42;;;;;;;16.72;78.86;101671.28;2101131;28;20062;-72
2022/10/22 01:41:45;;;;;;;9.75;2.30;;;;;;;16.72;78.99;101673.94;2077397;28;20041;-72
2022/10/22 01:43:09;;;;;;;13.70;2.72;;;;;;;16.73;79.02;101668.63;2086205;28;20076;-73
2022/10/22 01:44:33;;;;;;;12.07;2.28;;;;;;;16.72;79.33;101677.50;2097523;28;20116;-73
2022/10/22 01:46:01;;;;;;;11.70;2.05;;;;;;;16.70;79.42;101681.91;2099725;28;20544;-73
2022/10/22 01:47:36;;;;;;;14.55;2.97;;;;;;;16.66;79.73;101680.13;2102887;28;20044;-73
2022/10/22 01:49:16;;;;;;;14.02;2.35;;;;;;;16.65;80.01;101674.78;2095511;28;20530;-74
2022/10/22 01:51:06;;;;;;;10.40;2.38;;;;;;;16.61;80.15;101673.88;2100004;28;20078;-73
2022/10/22 01:52:42;;;;;;;15.48;2.33;;;;;;;16.60;80.02;101673.88;2106516;28;20051;-73
2022/10/22 01:54:14;;;;;;;11.85;2.35;;;;;;;16.58;79.89;101664.94;2097048;28;20526;-73
2022/10/22 01:55:39;;;;;;;;;;;;;;;16.53;79.64;101664.91;2093338;28;20040;-73
2022/10/22 01:57:11;;;;;;;10.60;1.98;;;;;;;16.54;79.37;101664.00;2093613;28;20400;-73
2022/10/22 01:58:43;;;;;;;13.23;2.15;;;;;;;16.55;79.01;101665.78;2096519;28;20045;-74
2022/10/22 02:00:11;;;;;;;11.57;2.28;;;;;;;16.55;78.77;101664.91;2106355;28;20077;-74
2022/10/22 02:01:42;;;;;;;8.07;1.85;;;;;;;16.54;78.34;101665.81;2089548;28;20073;-73
2022/10/22 02:03:13;;;;;;;9.07;2.30;;;;;;;16.54;77.86;101669.34;2094963;28;20052;-74
2022/10/22 02:04:42;;;;;;;9.75;2.55;;;;;;;16.52;77.77;101676.47;2111558;28;20052;-75
2022/10/22 02:06:10;;;;;;;8.02;1.60;;;;;;;16.51;77.81;101674.69;2105879;28;20066;-74
2022/10/22 02:07:37;;;;;;;7.32;1.90;;;;;;;16.52;77.75;101676.47;2105909;28;20080;-74
2022/10/22 02:09:01;;;;;;;13.00;2.53;;;;;;;16.52;77.75;101676.47;2097285;28;20097;-74
2022/10/22 02:10:25;;;;;;;9.10;2.60;;;;;;;16.53;77.81;101678.25;2095152;28;20059;-74
2022/10/22 02:11:48;;;;;;;12.63;2.42;;;;;;;16.52;78.00;101672.91;2095005;28;20500;-74
2022/10/22 02:13:16;;;;;;;9.27;2.38;;;;;;;16.51;78.19;101677.34;2084559;28;20053;-74
2022/10/22 02:14:43;;;;;;;8.57;1.95;;;;;;;16.51;78.24;101676.44;2100471;28;20048;-74
2022/10/22 02:16:08;;;;;;;7.53;1.95;;;;;;;16.51;78.62;101677.34;2094479;28;20056;-75
2022/10/22 02:17:33;;;;;;;10.25;2.30;;;;;;;16.55;79.13;101680.91;2103365;28;20411;-75
2022/10/22 02:19:00;;;;;;;12.77;2.30;;;;;;;16.58;79.21;101673.81;2100149;28;20577;-74
2022/10/22 02:20:26;;;;;;;9.38;1.80;;;;;;;16.60;79.18;101677.44;2106056;28;20052;-74
2022/10/22 02:21:49;;;;;;;9.57;1.70;;;;;;;16.61;79.17;101680.97;2105334;28;20036;-73
2022/10/22 02:23:12;;;;;;;18.13;2.40;;;;;;;16.60;79.37;101680.09;2095043;28;20044;-74
2022/10/22 02:24:35;;;;;;;10.23;1.98;;;;;;;16.61;79.74;101676.53;2100099;28;20048;-74
2022/10/22 02:26:02;;;;;;;14.45;2.47;;;;;;;16.61;80.08;101678.28;2103328;28;20572;-75
2022/10/22 02:27:28;;;;;;;8.68;2.03;;;;;;;16.60;80.42;101676.53;2104039;28;20044;-74
2022/10/22 02:28:57;;;;;;;8.35;1.88;;;;;;;16.58;80.58;101672.94;2102421;28;20039;-74
2022/10/22 02:30:22;;;;;;;9.18;2.03;;;;;;;16.56;80.80;101670.25;2103993;28;20078;-74
2022/10/22 02:31:48;;;;;;;7.88;1.83;;;;;;;16.56;80.78;101672.03;2097481;28;20117;-74
2022/10/22 02:33:15;;;;;;;7.55;2.05;;;;;;;16.53;80.92;101667.59;2092733;28;20067;-75
2022/10/22 02:34:38;;;;;;;10.93;2.58;;;;;;;16.49;81.03;101673.75;2101426;28;20550;-75
2022/10/22 02:36:01;;;;;;;7.57;1.95;;;;;;;16.49;81.17;101678.19;2095039;28;20083;-75
2022/10/22 02:37:26;;;;;;;10.32;2.55;;;;;;;16.47;81.24;101683.53;2086801;28;20037;-74
2022/10/22 02:38:50;;;;;;;15.43;2.30;;;;;;;16.46;81.41;101684.44;2100913;28;20056;-74
2022/10/22 02:40:13;;;;;;;10.35;2.38;;;;;;;16.46;81.48;101695.09;2089428;28;20608;-74
2022/10/22 02:41:35;;;;;;;9.60;1.67;;;;;;;16.46;81.70;101695.09;2084295;28;20087;-74
2022/10/22 02:42:58;;;;;;;10.05;2.17;;;;;;;16.46;81.87;101692.41;2095999;28;20144;-74
2022/10/22 02:44:22;;;;;;;10.70;1.85;;;;;;;16.48;81.95;101693.31;2103374;28;20062;-74
2022/10/22 02:45:44;;;;;;;16.95;2.85;;;;;;;16.50;82.12;101693.31;2102394;28;20036;-74
2022/10/22 02:47:08;;;;;;;8.90;2.22;;;;;;;16.50;82.30;101696.88;2105411;28;20048;-74
2022/10/22 02:48:31;;;;;;;9.63;2.13;;;;;;;16.50;82.52;101704.88;2097365;28;20044;-73
2022/10/22 02:49:54;;;;;;;17.17;2.00;;;;;;;16.51;82.63;101703.09;2100267;28;20043;-73
2022/10/22 02:51:16;;;;;;;11.75;2.30;;;;;;;16.53;82.56;101694.25;2094714;28;20053;-73
2022/10/22 02:52:39;;;;;;;17.00;2.42;;;;;;;16.53;82.50;101702.25;2094452;28;20049;-74
2022/10/22 02:54:02;;;;;;;12.93;2.50;;;;;;;16.56;82.29;101702.25;2094701;28;20045;-74
2022/10/22 02:55:23;;;;;;;9.38;2.00;;;;;;;16.57;81.75;101697.81;2094810;28;20051;-74
2022/10/22 02:56:46;;;;;;;10.75;2.65;;;;;;;16.60;81.34;101697.88;2091071;28;20067;-74
2022/10/22 02:58:07;;;;;;;5.93;1.65;;;;;;;16.61;81.11;101704.97;2100621;28;20066;-74
2022/10/22 02:59:29;;;;;;;10.63;2.10;;;;;;;16.58;81.07;101703.16;2110849;28;20044;-74
2022/10/22 03:00:51;;;;;;;7.28;2.55;;;;;;;16.56;81.17;101696.91;2097479;28;20049;-74
2022/10/22 03:02:15;;;;;;;9.80;2.13;;;;;;;16.53;81.30;101704.91;2091810;28;20082;-74
2022/10/22 03:03:36;;;;;;;11.82;2.28;;;;;;;16.50;81.51;101701.31;2094648;28;20520;-74
2022/10/22 03:04:59;;;;;;;8.30;1.98;;;;;;;16.49;81.70;101700.41;2099438;28;20040;-74
2022/10/22 03:06:20;;;;;;;9.90;2.45;;;;;;;16.50;81.81;101706.66;2090174;28;20157;-74
2022/10/22 03:07:42;;;;;;;11.10;2.42;;;;;;;16.51;81.66;101705.78;2100447;28;20048;-74
2022/10/22 03:09:04;;;;;;;10.00;2.80;;;;;;;16.49;81.84;101700.41;2105786;28;20051;-74
2022/10/22 03:10:27;;;;;;;10.82;2.22;;;;;;;16.50;82.00;101693.31;2097276;28;20086;-74
2022/10/22 03:11:48;;;;;;;8.77;3.30;;;;;;;16.50;82.17;101690.66;2099809;28;20136;-74
2022/10/22 03:13:11;;;;;;;8.43;2.58;;;;;;;16.51;82.38;101703.09;2094778;28;20044;-74
2022/10/22 03:14:33;;;;;;;12.85;2.55;;;;;;;16.52;82.39;101704.88;2093814;28;20052;-74
2022/10/22 03:15:55;;;;;;;13.57;2.35;;;;;;;16.51;82.55;101693.34;2107286;28;20491;-74
2022/10/22 03:17:19;;;;;;;10.45;2.42;;;;;;;16.54;82.48;101711.13;2105775;28;20052;-74
2022/10/22 03:18:40;;;;;;;8.70;2.30;;;;;;;16.53;82.59;101704.91;2102843;28;20048;-74
2022/10/22 03:20:03;;;;;;;12.30;2.47;;;;;;;16.51;82.96;101698.66;2102593;28;20051;-73
2022/10/22 03:21:32;;;;;;;9.70;2.25;;;;;;;16.50;83.30;101715.53;2097550;28;20706;-74
2022/10/22 03:22:55;;;;;;;11.52;2.30;;;;;;;16.48;83.79;101713.72;2103316;28;20051;-74
2022/10/22 03:24:24;;;;;;;12.32;2.58;;;;;;;16.46;84.28;101720.84;2102318;28;20051;-74
2022/10/22 03:25:49;;;;;;;12.43;3.10;;;;;;;16.42;84.85;101727.00;2095518;28;20049;-73
2022/10/22 03:27:13;;;;;;;22.85;2.40;;;;;;;16.38;85.12;101728.78;2094906;28;20480;-73
2022/10/22 03:28:37;;;;;;;9.93;2.67;;;;;;;16.37;85.35;101729.66;2094820;28;20051;-73
2022/10/22 03:29:59;;;;;;;9.52;2.28;;;;;;;16.35;85.57;101732.31;2098242;28;20035;-74
2022/10/22 03:31:21;;;;;;;11.10;2.65;;;;;;;16.34;85.64;101734.97;2093911;28;20048;-74
2022/10/22 03:32:44;;;;;;;9.43;1.90;;;;;;;16.33;85.78;101735.84;2091737;28;20093;-74
2022/10/22 03:34:07;;;;;;;15.65;2.95;;;;;;;16.32;85.93;101736.72;2093777;28;20044;-73
2022/10/22 03:35:29;;;;;;;10.43;2.92;;;;;;;16.32;86.29;101740.28;2091664;28;20089;-74
2022/10/22 03:36:53;;;;;;;11.38;2.78;;;;;;;16.34;86.18;101741.19;2102879;28;20044;-73
2022/10/22 03:38:15;;;;;;;8.90;2.55;;;;;;;16.35;86.32;101744.72;2088845;28;20135;-73
2022/10/22 03:39:38;;;;;;;9.65;2.33;;;;;;;16.33;86.45;101744.75;2092829;28;20044;-73
2022/10/22 03:40:59;;;;;;;11.02;2.38;;;;;;;16.33;86.61;101747.41;2092064;28;20109;-73
2022/10/22 03:42:22;;;;;;;13.98;2.25;;;;;;;16.32;86.91;101742.06;2091915;28;20465;-73
2022/10/22 03:43:48;;;;;;;14.00;2.60;;;;;;;16.33;86.94;101747.41;2086152;28;20037;-74
2022/10/22 03:45:10;;;;;;;10.63;2.05;;;;;;;16.32;87.14;101744.72;2095558;28;20591;-74
2022/10/22 03:46:33;;;;;;;;;;;;;;;16.27;87.35;101742.03;2094619;28;20394;-73
2022/10/22 03:47:56;;;;;;;11.07;2.13;;;;;;;16.26;87.54;101750.00;2091687;28;20386;-74
2022/10/22 03:49:19;;;;;;;11.95;2.50;;;;;;;16.24;87.60;101746.44;2102414;28;20048;-74
2022/10/22 03:50:40;;;;;;;12.05;3.15;;;;;;;16.21;87.86;101741.97;2099586;28;20041;-74
2022/10/22 03:52:07;;;;;;;9.05;2.30;;;;;;;16.20;88.04;101750.84;2096935;28;20061;-73
2022/10/22 03:53:29;;;;;;;12.05;2.60;;;;;;;16.18;87.95;101760.59;2092296;28;20468;-73
2022/10/22 03:54:50;;;;;;;12.80;2.35;;;;;;;16.19;88.04;101764.16;2099429;28;20044;-74
2022/10/22 03:56:14;;;;;;;12.98;2.80;;;;;;;16.17;88.18;101760.56;2096307;28;20048;-73
2022/10/22 03:57:35;;;;;;;8.35;2.60;;;;;;;16.18;88.03;101762.38;2102784;28;20044;-73
2022/10/22 03:58:58;;;;;;;12.75;2.53;;;;;;;16.20;87.70;101764.19;2101568;28;20058;-74
2022/10/22 04:00:20;;;;;;;15.48;3.33;;;;;;;16.21;87.42;101768.59;2093572;28;20044;-74
2022/10/22 04:01:42;;;;;;;10.65;2.45;;;;;;;16.19;87.11;101764.16;2100135;28;20052;-74
2022/10/22 04:03:05;;;;;;;11.70;2.40;;;;;;;16.17;87.07;101763.25;2088049;28;20097;-74
2022/10/22 04:04:28;;;;;;;17.58;2.97;;;;;;;16.14;86.94;101758.81;2091633;28;20080;-74
2022/10/22 04:05:50;;;;;;;12.38;2.47;;;;;;;16.13;86.79;101761.44;2099775;28;20031;-74
2022/10/22 04:07:11;;;;;;;12.23;2.42;;;;;;;16.11;86.62;101765.84;2102453;28;20498;-74
2022/10/22 04:08:34;;;;;;;15.50;2.90;;;;;;;16.10;86.49;101770.28;2102202;28;20048;-74
2022/10/22 04:09:55;;;;;;;10.13;2.10;;;;;;;16.08;86.50;101760.53;2102479;28;20391;-74
2022/10/22 04:11:18;;;;;;;10.32;2.80;;;;;;;16.07;86.43;101764.06;2096388;28;20037;-74
2022/10/22 04:12:39;;;;;;;12.00;2.60;;;;;;;16.07;86.35;101767.63;2091498;28;20056;-74
2022/10/22 04:14:02;;;;;;;11.25;2.53;;;;;;;16.10;85.99;101769.38;2098743;28;20036;-74
2022/10/22 04:15:26;;;;;;;9.82;2.35;;;;;;;16.13;85.54;101769.44;2104757;28;20048;-73
2022/10/22 04:16:49;;;;;;;8.35;2.55;;;;;;;16.17;85.04;101769.47;2110848;28;20105;-74
2022/10/22 04:18:14;;;;;;;9.15;2.45;;;;;;;16.21;84.59;101775.72;2103872;28;20151;-73
2022/10/22 04:19:35;;;;;;;10.50;3.15;;;;;;;16.24;84.23;101767.75;2094139;28;20048;-74
2022/10/22 04:20:57;;;;;;;13.55;3.03;;;;;;;16.26;83.90;101777.56;2094146;28;20055;-74
2022/10/22 04:22:20;;;;;;;8.75;2.38;;;;;;;16.25;83.88;101781.09;2093802;28;20036;-74
2022/10/22 04:23:44;;;;;;;17.52;2.45;;;;;;;16.25;83.81;101774.88;2090511;28;20051;-73
2022/10/22 04:25:07;;;;;;;10.88;2.20;;;;;;;16.22;83.96;101781.06;2094352;28;20045;-73
2022/10/22 04:26:28;;;;;;;10.68;2.50;;;;;;;16.24;84.33;101786.41;2099649;28;20044;-73
2022/10/22 04:27:51;;;;;;;8.02;2.33;;;;;;;16.24;84.87;101786.41;2093768;28;20475;-74
2022/10/22 04:29:12;;;;;;;13.65;2.75;;;;;;;16.26;85.13;101787.31;2091359;28;20048;-74
2022/10/22 04:30:35;;;;;;;8.52;2.40;;;;;;;16.27;85.10;101787.34;2098967;28;20068;-73
2022/10/22 04:31:56;;;;;;;12.25;2.72;;;;;;;16.28;85.16;101790.88;2093858;28;20052;-74
2022/10/22 04:33:21;;;;;;;13.10;3.72;;;;;;;16.30;85.16;101789.13;2099631;28;20036;-74
2022/10/22 04:34:42;;;;;;;13.10;2.60;;;;;;;16.30;85.20;101790.00;2102393;28;20052;-74
2022/10/22 04:36:08;;;;;;;7.13;2.75;;;;;;;16.31;85.14;101786.47;2102244;28;20169;-74
2022/10/22 04:37:32;;;;;;;10.40;3.45;;;;;;;16.33;85.29;101792.72;2103053;28;20114;-74
2022/10/22 04:38:57;;;;;;;12.32;3.00;;;;;;;16.36;85.40;101799.81;2092969;28;20480;-74
2022/10/22 04:40:20;;;;;;;11.23;3.45;;;;;;;16.37;85.55;101790.97;2099540;28;20435;-74
2022/10/22 04:41:41;;;;;;;13.65;3.90;;;;;;;16.38;85.75;101802.50;2106891;28;20035;-74
2022/10/22 04:43:04;;;;;;;10.38;3.58;;;;;;;16.36;85.97;101791.84;2104137;28;20082;-73
2022/10/22 04:44:25;;;;;;;13.15;4.38;;;;;;;16.35;86.02;101801.59;2093804;28;20054;-73
2022/10/22 04:45:48;;;;;;;13.48;3.17;;;;;;;16.34;86.19;101805.13;2085057;28;20096;-73
2022/10/22 04:47:10;;;;;;;11.30;2.92;;;;;;;16.33;86.11;101813.16;2088812;28;20147;-74
2022/10/22 04:48:33;;;;;;;20.23;3.08;;;;;;;16.32;86.02;101806.03;2099002;28;20059;-73
2022/10/22 04:49:56;;;;;;;12.55;2.42;;;;;;;16.33;85.69;101811.38;2102507;28;20734;-73
2022/10/22 04:51:19;;;;;;;8.95;2.30;;;;;;;16.34;85.63;101812.28;2094033;28;20408;-73
2022/10/22 04:52:41;;;;;;;9.88;2.80;;;;;;;16.35;85.25;101811.38;2099743;28;20592;-72
2022/10/22 04:54:04;;;;;;;10.50;2.33;;;;;;;16.37;85.15;101811.38;2096555;28;20144;-73
2022/10/22 04:55:25;;;;;;;11.65;2.60;;;;;;;16.39;85.19;101810.53;2092905;28;20043;-73
2022/10/22 04:56:48;;;;;;;7.50;2.20;;;;;;;16.45;84.88;101812.34;2101315;28;20757;-73
2022/10/22 04:58:09;;;;;;;16.45;2.72;;;;;;;16.52;84.52;101811.53;2099046;28;20373;-73
2022/10/22 04:59:32;;;;;;;8.23;2.30;;;;;;;16.59;84.28;101814.25;2093320;28;20060;-73
2022/10/22 05:00:53;;;;;;;8.52;2.63;;;;;;;16.67;83.80;101811.69;2099141;28;20515;-73
2022/10/22 05:02:16;;;;;;;12.35;2.65;;;;;;;16.75;83.49;101817.94;2102111;28;20044;-73
2022/10/22 05:03:39;;;;;;;13.00;2.55;;;;;;;16.83;83.30;101813.56;2102105;28;20074;-73
2022/10/22 05:05:02;;;;;;;13.43;2.95;;;;;;;16.88;83.13;101818.91;2101945;28;20052;-73
2022/10/22 05:06:24;;;;;;;11.13;3.47;;;;;;;16.92;82.65;101818.06;2091182;28;20470;-73
2022/10/22 05:07:46;;;;;;;7.47;2.30;;;;;;;16.92;82.93;101826.97;2101762;28;20048;-74
2022/10/22 05:09:12;;;;;;;7.82;2.67;;;;;;;16.92;82.95;101815.41;2101793;28;20048;-73
2022/10/22 05:10:34;;;;;;;9.32;2.92;;;;;;;16.95;83.02;101820.75;2088112;28;20049;-73
2022/10/22 05:11:56;;;;;;;17.48;3.50;;;;;;;16.99;83.22;101819.91;2082438;28;20546;-73
2022/10/22 05:13:17;;;;;;;12.10;2.63;;;;;;;17.11;83.51;101815.53;2090774;28;20392;-73
2022/10/22 05:14:40;;;;;;;11.02;3.05;;;;;;;17.24;83.64;101823.59;2097304;28;20060;-73
2022/10/22 05:16:02;;;;;;;19.20;4.95;;;;;;;17.37;83.79;101825.44;2101693;28;20566;-73
2022/10/22 05:17:25;;;;;;;8.98;2.10;;;;;;;17.48;83.83;101816.59;2093467;28;20737;-73
2022/10/22 05:18:48;;;;;;;14.15;2.53;;;;;;;17.67;83.79;101825.59;2093560;28;20090;-73
2022/10/22 05:20:11;;;;;;;9.25;2.72;;;;;;;17.87;84.21;101831.00;2089952;28;20057;-73
2022/10/22 05:21:34;;;;;;;18.10;3.65;;;;;;;18.06;84.01;101830.16;2095237;28;20461;-73
2022/10/22 05:22:56;;;;;;;8.70;2.53;;;;;;;18.14;83.82;101835.53;2085751;28;20052;-73
2022/10/22 05:24:18;;;;;;;8.68;2.15;;;;;;;18.17;83.22;101836.44;2101031;28;20539;-73
2022/10/22 05:25:40;;;;;;;14.70;2.80;;;;;;;18.26;82.87;101836.44;2103968;28;20044;-72
2022/10/22 05:27:03;;;;;;;12.52;2.63;;;;;;;18.32;82.40;101841.78;2094687;28;20485;-73
2022/10/22 05:28:25;;;;;;;8.48;2.20;;;;;;;18.34;81.83;101841.78;2101442;28;20051;-73
2022/10/22 05:29:48;;;;;;;10.20;2.20;;;;;;;18.36;81.52;101848.03;2090088;28;20068;-73
2022/10/22 05:31:11;;;;;;;13.77;2.42;;;;;;;18.36;81.09;101848.03;2094945;28;20056;-73
2022/10/22 05:32:35;;;;;;;15.13;2.85;;;;;;;18.39;80.86;101858.72;2092183;28;20055;-74
2022/10/22 05:33:58;;;;;;;14.73;2.13;;;;;;;18.39;80.67;101850.69;2095258;28;20028;-74
2022/10/22 05:35:20;;;;;;;7.28;2.28;;;;;;;18.41;81.04;101858.72;2095594;28;20054;-74
2022/10/22 05:36:43;;;;;;;13.10;2.47;;;;;;;18.41;81.22;101862.31;2087238;28;20094;-75
2022/10/22 05:38:04;;;;;;;11.18;2.67;;;;;;;18.44;81.25;101864.09;2101114;28;20048;-74
2022/10/22 05:39:27;;;;;;;8.85;1.92;;;;;;;18.49;80.93;101862.31;2099839;28;20305;-74
2022/10/22 05:40:57;;;;;;;8.55;2.17;;;;;;;18.55;80.76;101855.22;2102884;28;20067;-74
2022/10/22 05:42:26;;;;;;;9.75;2.15;;;;;;;18.53;81.43;101856.97;2104367;28;20070;-74
2022/10/22 05:43:48;;;;;;;10.35;2.22;;;;;;;18.53;81.48;101864.09;2088020;28;20132;-75
2022/10/22 05:45:11;;;;;;;10.93;2.05;;;;;;;18.56;81.66;101854.34;2086949;28;20053;-75
2022/10/22 05:46:35;;;;;;;12.07;3.13;;;;;;;18.58;81.14;101863.22;2101142;28;20484;-75
2022/10/22 05:47:57;;;;;;;10.07;2.40;;;;;;;18.58;81.23;101871.25;2111350;28;20035;-74
2022/10/22 05:49:22;;;;;;;6.95;1.98;;;;;;;18.55;81.15;101871.28;2088898;28;20053;-74
2022/10/22 05:50:45;;;;;;;12.73;2.90;;;;;;;18.48;81.29;101872.13;2093126;28;20121;-75
2022/10/22 05:52:07;;;;;;;9.85;2.35;;;;;;;18.52;82.63;101878.34;2092382;28;20099;-75
2022/10/22 05:53:28;;;;;;;8.57;2.67;;;;;;;18.57;82.46;101881.97;2104165;28;20603;-74
2022/10/22 05:54:51;;;;;;;13.80;2.17;;;;;;;18.61;82.25;101873.94;2096652;28;20504;-74
2022/10/22 05:56:15;;;;;;;12.40;2.25;;;;;;;18.62;81.64;101875.72;2106473;28;20065;-74
2022/10/22 05:57:40;;;;;;;8.68;2.28;;;;;;;18.62;81.37;101872.16;2105363;28;20044;-74
2022/10/22 05:59:02;;;;;;;10.65;2.63;;;;;;;18.62;81.38;101873.06;2099928;28;20032;-74
2022/10/22 06:00:24;;;;;;;16.63;2.78;;;;;;;18.60;81.59;101881.97;2091998;28;20746;-75
2022/10/22 06:01:47;;;;;;;14.10;2.45;;;;;;;18.55;81.92;101878.38;2108507;28;20096;-75
2022/10/22 06:03:09;;;;;;;11.23;2.22;;;;;;;18.54;82.22;101880.16;2095151;28;20492;-75
2022/10/22 06:04:33;;;;;;;10.20;2.40;;;;;;;18.54;82.56;101880.16;2099949;28;20048;-74
2022/10/22 06:05:54;;;;;;;10.70;2.10;;;;;;;18.54;82.77;101884.59;2095086;28;20068;-74
2022/10/22 06:07:17;;;;;;;10.82;2.28;;;;;;;18.52;82.09;101892.59;2099056;28;20040;-74
2022/10/22 06:08:38;;;;;;;10.63;2.38;;;;;;;18.54;81.91;101896.19;2093617;28;20511;-74
2022/10/22 06:10:02;;;;;;;10.32;2.20;;;;;;;18.55;81.56;101894.41;2094537;28;20040;-74
2022/10/22 06:11:25;;;;;;;11.45;2.30;;;;;;;18.54;81.54;101895.28;2089570;28;20057;-75
2022/10/22 06:12:48;;;;;;;12.02;2.65;;;;;;;18.51;82.05;101890.81;2088408;28;20059;-75
2022/10/22 06:14:11;;;;;;;15.82;3.15;;;;;;;18.49;82.38;101895.31;2094979;28;20079;-74
2022/10/22 06:15:33;;;;;;;8.93;2.20;;;;;;;18.50;82.78;101899.75;2101039;28;20044;-75
2022/10/22 06:16:59;;;;;;;6.70;2.13;;;;;;;18.54;82.30;101897.97;2094799;28;20076;-73
2022/10/22 06:18:21;;;;;;;8.90;2.17;;;;;;;18.53;81.42;101894.41;2100309;28;20048;-74
2022/10/22 06:19:46;;;;;;;10.07;2.30;;;;;;;18.53;80.79;101890.84;2105473;28;20320;-74
2022/10/22 06:21:08;;;;;;;9.75;2.42;;;;;;;18.54;80.50;101900.66;2097692;28;20055;-75
2022/10/22 06:22:31;;;;;;;7.38;2.47;;;;;;;18.57;80.27;101898.91;2092469;28;20057;-74
2022/10/22 06:23:56;;;;;;;23.55;3.40;;;;;;;18.71;80.07;101897.13;2103019;28;20081;-74
2022/10/22 06:25:18;;;;;;;10.75;2.38;;;;;;;18.76;79.41;101902.50;2097642;28;20638;-74
2022/10/22 06:26:43;;;;;;;8.75;2.35;;;;;;;18.75;78.96;101903.38;2090470;28;20143;-74
2022/10/22 06:28:04;;;;;;;12.13;2.33;;;;;;;18.76;78.57;101907.84;2100008;28;20106;-74